createdAt,value
2022-12-15T00:02:10.200Z,100.00
2022-12-15T00:04:55.323Z,100.00
2022-12-15T00:07:40.132Z,100.00
2022-12-15T00:10:25.521Z,100.00
2022-12-15T00:13:10.366Z,100.00
2022-12-15T00:15:55.790Z,100.00
2022-12-15T00:18:40.912Z,100.00
2022-12-15T00:21:25.993Z,100.00
2022-12-15T00:24:10.977Z,100.00
2022-12-15T00:26:55.918Z,100.00
2022-12-15T00:29:40.931Z,100.00
2022-12-15T00:32:25.722Z,100.00
2022-12-15T00:35:10.576Z,100.00
2022-12-15T00:37:55.379Z,100.00
2022-12-15T00:40:21.853Z,100.00
2022-12-15T00:42:49.656Z,100.00
2022-12-15T00:45:16.466Z,100.00
2022-12-15T00:47:42.926Z,100.00
2022-12-15T00:50:27.846Z,100.00
2022-12-15T00:53:12.707Z,100.00
2022-12-15T00:55:57.547Z,100.00
2022-12-15T00:58:42.381Z,100.00
2022-12-15T01:01:28.618Z,100.00
2022-12-15T01:04:13.851Z,100.00
2022-12-15T01:06:59.041Z,100.00
2022-12-15T01:09:44.408Z,100.00
2022-12-15T01:12:29.546Z,100.00
2022-12-15T01:15:14.429Z,100.00
2022-12-15T01:17:59.147Z,100.00
2022-12-15T01:20:25.675Z,100.00
2022-12-15T01:22:54.767Z,100.00
2022-12-15T01:25:24.093Z,100.00
2022-12-15T01:27:51.668Z,100.00
2022-12-15T01:30:21.534Z,100.00
2022-12-15T01:32:48.328Z,100.00
2022-12-15T01:35:15.141Z,100.00
2022-12-15T01:37:41.758Z,100.00
2022-12-15T01:40:32.049Z,100.00
2022-12-15T01:42:58.824Z,100.00
2022-12-15T01:45:28.350Z,100.00
2022-12-15T01:48:03.305Z,100.00
2022-12-15T01:50:33.012Z,100.00
2022-12-15T01:52:59.590Z,100.00
2022-12-15T01:55:28.289Z,100.00
2022-12-15T01:57:59.512Z,100.00
2022-12-15T02:00:26.623Z,100.00
2022-12-15T02:02:54.456Z,100.00
2022-12-15T02:05:21.945Z,100.00
2022-12-15T02:07:48.392Z,100.00
2022-12-15T02:10:16.589Z,100.00
2022-12-15T02:12:55.046Z,100.00
2022-12-15T02:15:33.683Z,100.00
2022-12-15T02:18:06.447Z,100.00
2022-12-15T02:21:00.868Z,100.00
2022-12-15T02:23:53.712Z,100.00
2022-12-15T02:26:36.558Z,100.00
2022-12-15T02:30:00.671Z,100.00
2022-12-15T02:32:37.022Z,100.00
2022-12-15T02:35:15.414Z,100.00
2022-12-15T02:37:42.285Z,100.00
2022-12-15T02:40:10.631Z,100.00
2022-12-15T02:42:45.805Z,100.00
2022-12-15T02:45:16.079Z,100.00
2022-12-15T02:47:49.906Z,100.00
2022-12-15T02:50:42.076Z,100.00
2022-12-15T02:53:20.708Z,100.00
2022-12-15T02:56:05.511Z,100.00
2022-12-15T02:59:01.731Z,100.00
2022-12-15T03:01:44.637Z,100.00
2022-12-15T03:04:12.856Z,100.00
2022-12-15T03:06:39.676Z,100.00
2022-12-15T03:09:06.185Z,100.00
2022-12-15T03:11:32.977Z,100.00
2022-12-15T03:13:59.512Z,100.00
2022-12-15T03:16:26.080Z,100.00
2022-12-15T03:18:52.833Z,100.00
2022-12-15T03:21:19.577Z,100.00
2022-12-15T03:23:46.043Z,100.00
2022-12-15T03:26:12.697Z,100.00
2022-12-15T03:28:39.154Z,100.00
2022-12-15T03:31:05.783Z,100.00
2022-12-15T03:33:34.545Z,100.00
2022-12-15T03:36:01.489Z,100.00
2022-12-15T03:38:27.940Z,100.00
2022-12-15T03:40:54.583Z,100.00
2022-12-15T03:43:21.118Z,100.00
2022-12-15T03:45:47.866Z,100.00
2022-12-15T03:48:14.334Z,100.00
2022-12-15T03:50:40.834Z,100.00
2022-12-15T03:53:07.646Z,100.00
2022-12-15T03:55:35.180Z,100.00
2022-12-15T03:58:02.679Z,100.00
2022-12-15T04:00:29.292Z,100.00
2022-12-15T04:02:56.320Z,100.00
2022-12-15T04:05:33.181Z,100.00
2022-12-15T04:08:01.211Z,100.00
2022-12-15T04:10:34.432Z,100.00
2022-12-15T04:13:04.717Z,100.00
2022-12-15T04:15:31.204Z,100.00
2022-12-15T04:17:58.414Z,100.00
2022-12-15T04:20:24.943Z,100.00
2022-12-15T04:22:51.829Z,100.00
2022-12-15T04:25:42.149Z,100.00
2022-12-15T04:28:29.297Z,100.00
2022-12-15T04:31:21.181Z,100.00
2022-12-15T04:34:10.058Z,100.00
2022-12-15T04:36:58.920Z,100.00
2022-12-15T04:39:44.259Z,100.00
2022-12-15T04:42:29.516Z,100.00
2022-12-15T04:45:20.907Z,100.00
2022-12-15T04:48:06.958Z,100.00
2022-12-15T04:50:52.144Z,100.00
2022-12-15T04:53:37.886Z,100.00
2022-12-15T04:56:27.596Z,100.00
2022-12-15T04:59:12.795Z,100.00
2022-12-15T05:01:57.923Z,100.00
2022-12-15T05:04:43.067Z,100.00
2022-12-15T05:07:28.231Z,100.00
2022-12-15T05:10:15.256Z,100.00
2022-12-15T05:13:01.903Z,100.00
2022-12-15T05:15:47.279Z,100.00
2022-12-15T05:18:32.335Z,100.00
2022-12-15T05:21:17.646Z,100.00
2022-12-15T05:24:02.715Z,100.00
2022-12-15T05:26:52.664Z,100.00
2022-12-15T05:29:39.007Z,100.00
2022-12-15T05:32:05.770Z,100.00
2022-12-15T05:34:33.918Z,100.00
2022-12-15T05:37:02.753Z,100.00
2022-12-15T05:39:29.521Z,100.00
2022-12-15T05:41:57.017Z,100.00
2022-12-15T05:44:24.940Z,100.00
2022-12-15T05:46:51.780Z,100.00
2022-12-15T05:49:18.541Z,100.00
2022-12-15T05:51:47.244Z,100.00
2022-12-15T05:54:17.241Z,100.00
2022-12-15T05:56:44.096Z,100.00
2022-12-15T05:59:10.979Z,100.00
2022-12-15T06:01:37.788Z,100.00
2022-12-15T06:04:04.958Z,100.00
2022-12-15T06:06:31.428Z,100.00
2022-12-15T06:08:58.172Z,100.00
2022-12-15T06:11:24.676Z,100.00
2022-12-15T06:13:51.219Z,100.00
2022-12-15T06:16:21.947Z,100.00
2022-12-15T06:18:52.393Z,100.00
2022-12-15T06:21:23.708Z,100.00
2022-12-15T06:23:50.512Z,100.00
2022-12-15T06:26:21.278Z,100.00
2022-12-15T06:28:49.421Z,100.00
2022-12-15T06:31:18.124Z,100.00
2022-12-15T06:33:44.698Z,100.00
2022-12-15T06:36:13.743Z,100.00
2022-12-15T06:38:43.427Z,100.00
2022-12-15T06:41:12.144Z,100.00
2022-12-15T06:43:38.931Z,100.00
2022-12-15T06:46:05.768Z,100.00
2022-12-15T06:48:32.628Z,100.00
2022-12-15T06:51:04.248Z,100.00
2022-12-15T06:53:31.476Z,100.00
2022-12-15T06:56:02.644Z,100.00
2022-12-15T06:58:29.233Z,100.00
2022-12-15T07:00:56.264Z,100.00
2022-12-15T07:03:22.935Z,100.00
2022-12-15T07:06:03.916Z,100.00
2022-12-15T07:08:34.183Z,100.00
2022-12-15T07:11:06.194Z,100.00
2022-12-15T07:13:33.263Z,100.00
2022-12-15T07:16:01.140Z,100.00
2022-12-15T07:18:29.260Z,100.00
2022-12-15T07:20:57.020Z,100.00
2022-12-15T07:23:39.889Z,100.00
2022-12-15T07:26:11.833Z,100.00
2022-12-15T07:28:38.526Z,100.00
2022-12-15T07:31:07.960Z,100.00
2022-12-15T07:33:35.612Z,100.00
2022-12-15T07:36:03.241Z,100.00
2022-12-15T07:38:29.995Z,100.00
2022-12-15T07:41:00.971Z,100.00
2022-12-15T07:43:28.416Z,100.00
2022-12-15T07:45:55.175Z,100.00
2022-12-15T07:48:21.878Z,100.00
2022-12-15T07:50:48.367Z,100.00
2022-12-15T07:53:17.348Z,100.00
2022-12-15T07:56:06.176Z,100.00
2022-12-15T07:58:30.247Z,100.00
2022-12-15T08:01:02.066Z,100.00
2022-12-15T08:03:30.439Z,100.00
2022-12-15T08:06:03.654Z,100.00
2022-12-15T08:08:31.218Z,100.00
2022-12-15T08:10:57.984Z,100.00
2022-12-15T08:14:00.180Z,100.00
2022-12-15T08:16:12.223Z,100.00
2022-12-15T08:18:39.506Z,100.00
2022-12-15T08:21:10.052Z,100.00
2022-12-15T08:23:37.407Z,100.00
2022-12-15T08:26:06.584Z,100.00
2022-12-15T08:28:37.732Z,100.00
2022-12-15T08:31:17.291Z,100.00
2022-12-15T08:33:44.680Z,100.00
2022-12-15T08:36:13.601Z,100.00
2022-12-15T08:38:42.372Z,100.00
2022-12-15T08:41:16.368Z,100.00
2022-12-15T08:43:48.151Z,100.00
2022-12-15T08:46:35.648Z,100.00
2022-12-15T08:49:03.191Z,100.00
2022-12-15T08:51:31.721Z,100.00
2022-12-15T08:53:59.445Z,100.00
2022-12-15T08:56:27.049Z,100.00
2022-12-15T08:59:01.984Z,100.00
2022-12-15T09:01:31.985Z,100.00
2022-12-15T09:03:59.526Z,100.00
2022-12-15T09:06:29.227Z,100.00
2022-12-15T09:08:57.588Z,100.00
2022-12-15T09:11:25.147Z,100.00
2022-12-15T09:13:51.666Z,100.00
2022-12-15T09:16:19.898Z,100.00
2022-12-15T09:18:49.000Z,100.00
2022-12-15T09:21:16.358Z,100.00
2022-12-15T09:23:43.437Z,100.00
2022-12-15T09:26:12.397Z,99.81
2022-12-15T09:28:39.319Z,100.00
2022-12-15T09:31:14.071Z,100.00
2022-12-15T09:33:42.140Z,100.00
2022-12-15T09:36:10.341Z,100.00
2022-12-15T09:38:40.949Z,100.00
2022-12-15T09:41:13.726Z,98.42
2022-12-15T09:44:00.874Z,97.15
2022-12-15T09:46:50.780Z,98.27
2022-12-15T09:49:38.799Z,96.05
2022-12-15T09:52:11.597Z,93.20
2022-12-15T09:54:41.417Z,94.93
2022-12-15T09:57:25.195Z,91.23
2022-12-15T10:00:05.214Z,84.20
2022-12-15T10:02:50.096Z,81.85
2022-12-15T10:05:50.024Z,81.00
2022-12-15T10:08:16.021Z,79.70
2022-12-15T10:10:58.907Z,76.21
2022-12-15T10:13:54.346Z,75.38
2022-12-15T10:16:21.559Z,70.96
2022-12-15T10:19:02.205Z,70.56
2022-12-15T10:21:31.167Z,66.65
2022-12-15T10:24:10.192Z,69.12
2022-12-15T10:26:36.668Z,63.93
2022-12-15T10:29:24.756Z,64.27
2022-12-15T10:31:55.637Z,64.88
2022-12-15T10:34:28.757Z,62.37
2022-12-15T10:36:56.543Z,62.44
2022-12-15T10:39:23.838Z,62.53
2022-12-15T10:42:11.096Z,69.83
2022-12-15T10:44:40.386Z,72.49
2022-12-15T10:47:27.421Z,74.31
2022-12-15T10:49:55.741Z,77.10
2022-12-15T10:52:40.340Z,80.91
2022-12-15T10:55:31.856Z,83.38
2022-12-15T10:58:00.856Z,84.58
2022-12-15T11:00:31.819Z,85.39
2022-12-15T11:02:59.196Z,87.82
2022-12-15T11:05:26.816Z,87.19
2022-12-15T11:08:15.010Z,88.63
2022-12-15T11:11:12.359Z,87.30
2022-12-15T11:13:39.831Z,85.28
2022-12-15T11:16:18.841Z,83.53
2022-12-15T11:18:51.226Z,78.14
2022-12-15T11:21:26.013Z,82.30
2022-12-15T11:24:07.105Z,84.24
2022-12-15T11:29:54.043Z,89.41
2022-12-15T11:32:24.543Z,87.45
2022-12-15T11:34:51.147Z,86.68
2022-12-15T11:37:36.232Z,86.84
2022-12-15T11:40:21.887Z,90.69
2022-12-15T11:42:48.805Z,91.32
2022-12-15T11:45:41.618Z,91.02
2022-12-15T11:48:37.132Z,89.95
2022-12-15T11:51:14.408Z,88.88
2022-12-15T11:53:54.290Z,87.71
2022-12-15T11:56:50.654Z,84.41
2022-12-15T11:59:47.974Z,84.96
2022-12-15T12:02:49.659Z,85.85
2022-12-15T12:05:30.003Z,88.61
2022-12-15T12:08:11.672Z,86.82
2022-12-15T12:11:02.997Z,86.25
2022-12-15T12:13:50.346Z,87.63
2022-12-15T12:16:36.375Z,89.37
2022-12-15T12:19:09.396Z,89.78
2022-12-15T12:21:50.794Z,93.16
2022-12-15T12:24:30.765Z,94.12
2022-12-15T12:27:02.098Z,94.32
2022-12-15T12:29:31.501Z,96.34
2022-12-15T12:32:05.882Z,96.50
2022-12-15T12:35:30.815Z,93.54
2022-12-15T12:38:01.170Z,93.06
2022-12-15T12:41:07.362Z,92.52
2022-12-15T12:43:40.773Z,93.79
2022-12-15T12:46:19.505Z,95.81
2022-12-15T12:48:55.993Z,94.62
2022-12-15T12:51:27.587Z,95.87
2022-12-15T12:53:55.555Z,94.80
2022-12-15T12:56:41.498Z,94.13
2022-12-15T12:59:29.820Z,94.75
2022-12-15T13:02:14.701Z,95.22
2022-12-15T13:04:44.347Z,96.28
2022-12-15T13:07:31.977Z,98.49
2022-12-15T13:10:09.113Z,99.45
2022-12-15T13:12:53.309Z,99.83
2022-12-15T13:15:41.602Z,99.02
2022-12-15T13:18:15.717Z,98.88
2022-12-15T13:20:44.042Z,99.38
2022-12-15T13:23:16.254Z,99.18
2022-12-15T13:25:48.540Z,100.00
2022-12-15T13:28:24.551Z,100.00
2022-12-15T13:31:19.176Z,100.00
2022-12-15T13:33:54.765Z,100.00
2022-12-15T13:36:39.581Z,100.00
2022-12-15T13:39:14.835Z,100.00
2022-12-15T13:44:54.941Z,100.00
2022-12-15T13:47:30.805Z,100.00
2022-12-15T13:50:13.400Z,100.00
2022-12-15T13:53:17.941Z,100.00
2022-12-15T13:55:51.081Z,100.00
2022-12-15T13:58:19.273Z,100.00
2022-12-15T14:00:55.269Z,99.96
2022-12-15T14:03:22.915Z,98.89
2022-12-15T14:05:58.803Z,99.68
2022-12-15T14:08:28.445Z,100.00
2022-12-15T14:10:58.027Z,100.00
2022-12-15T14:13:35.141Z,100.00
2022-12-15T14:16:20.121Z,98.96
2022-12-15T14:19:04.940Z,97.88
2022-12-15T14:21:31.409Z,99.70
2022-12-15T14:24:28.846Z,100.00
2022-12-15T14:26:44.418Z,100.00
2022-12-15T14:29:12.992Z,100.00
2022-12-15T14:31:40.554Z,100.00
2022-12-15T14:34:14.282Z,100.00
2022-12-15T14:36:43.034Z,100.00
2022-12-15T14:39:24.217Z,100.00
2022-12-15T14:41:52.428Z,100.00
2022-12-15T14:44:31.505Z,100.00
2022-12-15T14:47:18.872Z,100.00
2022-12-15T14:49:46.250Z,100.00
2022-12-15T14:52:36.679Z,100.00
2022-12-15T14:55:27.325Z,100.00
2022-12-15T14:57:54.524Z,100.00
2022-12-15T15:00:29.050Z,100.00
2022-12-15T15:03:09.172Z,88.51
2022-12-15T15:03:18.268Z,100.00
2022-12-15T15:05:47.737Z,100.00
2022-12-15T15:08:19.597Z,100.00
2022-12-15T15:10:46.357Z,100.00
2022-12-15T15:13:22.921Z,100.00
2022-12-15T15:16:00.805Z,100.00
2022-12-15T15:18:29.408Z,100.00
2022-12-15T15:21:03.279Z,100.00
2022-12-15T15:23:30.504Z,100.00
2022-12-15T15:26:07.379Z,100.00
2022-12-15T15:28:42.195Z,100.00
2022-12-15T15:31:41.018Z,100.00
2022-12-15T15:34:09.626Z,100.00
2022-12-15T15:36:38.551Z,100.00
2022-12-15T15:39:13.819Z,100.00
2022-12-15T15:41:40.781Z,100.00
2022-12-15T15:44:15.096Z,100.00
2022-12-15T15:46:48.303Z,100.00
2022-12-15T15:49:18.875Z,100.00
2022-12-15T15:51:45.471Z,100.00
2022-12-15T15:54:15.341Z,100.00
2022-12-15T15:56:41.860Z,100.00
2022-12-15T15:59:13.799Z,100.00
2022-12-15T16:01:40.758Z,100.00
2022-12-15T16:04:07.371Z,100.00
2022-12-15T16:06:35.125Z,100.00
2022-12-15T16:09:02.019Z,100.00
2022-12-15T16:11:33.037Z,100.00
2022-12-15T16:14:01.416Z,100.00
2022-12-15T16:16:31.841Z,100.00
2022-12-15T16:18:58.748Z,100.00
2022-12-15T16:21:27.664Z,100.00
2022-12-15T16:23:55.588Z,100.00
2022-12-15T16:26:31.163Z,100.00
2022-12-15T16:28:58.088Z,100.00
2022-12-15T16:31:35.451Z,100.00
2022-12-15T16:34:06.741Z,100.00
2022-12-15T16:36:33.438Z,100.00
2022-12-15T16:38:59.914Z,100.00
2022-12-15T16:41:27.680Z,100.00
2022-12-15T16:43:54.140Z,100.00
2022-12-15T16:46:20.731Z,100.00
2022-12-15T16:48:47.356Z,100.00
2022-12-15T16:51:34.388Z,100.00
2022-12-15T16:54:01.186Z,100.00
2022-12-15T16:56:27.670Z,100.00
2022-12-15T16:59:15.440Z,100.00
2022-12-15T17:01:41.438Z,100.00
2022-12-15T17:04:08.026Z,100.00
2022-12-15T17:06:34.919Z,100.00
2022-12-15T17:09:01.727Z,100.00
2022-12-15T17:11:29.183Z,100.00
2022-12-15T17:14:00.740Z,100.00
2022-12-15T17:16:28.503Z,100.00
2022-12-15T17:18:54.997Z,100.00
2022-12-15T17:21:27.853Z,100.00
2022-12-15T17:24:03.688Z,100.00
2022-12-15T17:26:35.324Z,100.00
2022-12-15T17:29:23.207Z,100.00
2022-12-15T17:31:50.056Z,100.00
2022-12-15T17:34:27.811Z,100.00
2022-12-15T17:36:55.322Z,100.00
2022-12-15T17:39:22.393Z,100.00
2022-12-15T17:41:59.863Z,100.00
2022-12-15T17:44:36.227Z,100.00
2022-12-15T17:47:06.415Z,100.00
2022-12-15T17:49:36.627Z,100.00
2022-12-15T17:52:27.783Z,100.00
2022-12-15T17:54:54.504Z,100.00
2022-12-15T17:57:20.984Z,100.00
2022-12-15T17:59:48.069Z,100.00
2022-12-15T18:02:15.082Z,100.00
2022-12-15T18:04:42.395Z,100.00
2022-12-15T18:07:18.412Z,100.00
2022-12-15T18:09:45.327Z,100.00
2022-12-15T18:12:20.879Z,100.00
2022-12-15T18:14:47.741Z,100.00
2022-12-15T18:17:14.719Z,100.00
2022-12-15T18:19:41.238Z,100.00
2022-12-15T18:22:21.927Z,100.00
2022-12-15T18:24:49.598Z,100.00
2022-12-15T18:27:21.583Z,100.00
2022-12-15T18:29:48.129Z,100.00
2022-12-15T18:32:15.257Z,100.00
2022-12-15T18:34:41.729Z,100.00
2022-12-15T18:37:19.999Z,100.00
2022-12-15T18:39:46.677Z,100.00
2022-12-15T18:42:18.930Z,100.00
2022-12-15T18:44:48.471Z,100.00
2022-12-15T18:47:21.387Z,100.00
2022-12-15T18:49:48.010Z,100.00
2022-12-15T18:52:21.431Z,100.00
2022-12-15T18:54:49.740Z,100.00
2022-12-15T18:57:26.910Z,100.00
2022-12-15T18:59:56.358Z,100.00
2022-12-15T19:02:22.937Z,100.00
2022-12-15T19:04:49.475Z,100.00
2022-12-15T19:07:16.247Z,100.00
2022-12-15T19:09:42.824Z,100.00
2022-12-15T19:12:17.907Z,100.00
2022-12-15T19:14:55.153Z,100.00
2022-12-15T19:17:42.147Z,100.00
2022-12-15T19:20:37.164Z,100.00
2022-12-15T19:23:05.260Z,100.00
2022-12-15T19:25:32.649Z,100.00
2022-12-15T19:28:00.312Z,100.00
2022-12-15T19:30:29.920Z,100.00
2022-12-15T19:32:56.871Z,100.00
2022-12-15T19:35:24.671Z,100.00
2022-12-15T19:37:54.954Z,100.00
2022-12-15T19:40:27.458Z,100.00
2022-12-15T19:42:55.457Z,100.00
2022-12-15T19:45:28.284Z,100.00
2022-12-15T19:47:55.385Z,100.00
2022-12-15T19:50:36.597Z,100.00
2022-12-15T19:53:10.276Z,100.00
2022-12-15T19:55:36.874Z,100.00
2022-12-15T19:58:26.907Z,100.00
2022-12-15T20:00:56.241Z,100.00
2022-12-15T20:03:23.498Z,100.00
2022-12-15T20:05:51.855Z,100.00
2022-12-15T20:08:25.348Z,100.00
2022-12-15T20:10:53.846Z,100.00
2022-12-15T20:13:22.287Z,100.00
2022-12-15T20:15:48.733Z,100.00
2022-12-15T20:18:15.360Z,100.00
2022-12-15T20:20:45.513Z,100.00
2022-12-15T20:23:23.507Z,100.00
2022-12-15T20:25:49.968Z,100.00
2022-12-15T20:28:22.291Z,100.00
2022-12-15T20:30:48.986Z,100.00
2022-12-15T20:33:15.887Z,100.00
2022-12-15T20:35:44.653Z,100.00
2022-12-15T20:38:25.865Z,100.00
2022-12-15T20:40:52.983Z,100.00
2022-12-15T20:43:21.169Z,100.00
2022-12-15T20:45:54.749Z,100.00
2022-12-15T20:48:24.768Z,100.00
2022-12-15T20:50:51.530Z,100.00
2022-12-15T20:53:23.789Z,100.00
2022-12-15T20:55:52.513Z,100.00
2022-12-15T20:58:19.555Z,100.00
2022-12-15T21:00:48.395Z,100.00
2022-12-15T21:03:25.811Z,100.00
2022-12-15T21:05:55.796Z,100.00
2022-12-15T21:08:29.578Z,100.00
2022-12-15T21:11:01.184Z,100.00
2022-12-15T21:13:31.331Z,100.00
2022-12-15T21:15:58.172Z,100.00
2022-12-15T21:21:18.786Z,100.00
2022-12-15T21:23:45.659Z,100.00
2022-12-15T21:26:13.297Z,100.00
2022-12-15T21:28:39.803Z,100.00
2022-12-15T21:31:06.305Z,100.00
2022-12-15T21:33:32.965Z,100.00
2022-12-15T21:36:00.554Z,100.00
2022-12-15T21:38:32.330Z,100.00
2022-12-15T21:41:01.893Z,100.00
2022-12-15T21:43:31.679Z,100.00
2022-12-15T21:46:00.279Z,100.00
2022-12-15T21:48:58.836Z,100.00
2022-12-15T21:51:34.388Z,100.00
2022-12-15T21:54:01.551Z,100.00
2022-12-15T21:56:28.196Z,100.00
2022-12-15T21:58:56.270Z,100.00
2022-12-15T22:01:30.767Z,100.00
2022-12-15T22:04:01.108Z,100.00
2022-12-15T22:06:29.535Z,100.00
2022-12-15T22:09:00.327Z,100.00
2022-12-15T22:11:31.609Z,100.00
2022-12-15T22:14:02.668Z,100.00
2022-12-15T22:16:29.808Z,100.00
2022-12-15T22:18:58.257Z,100.00
2022-12-15T22:21:25.195Z,100.00
2022-12-15T22:23:52.248Z,100.00
2022-12-15T22:26:24.450Z,100.00
2022-12-15T22:28:51.264Z,100.00
2022-12-15T22:31:18.720Z,100.00
2022-12-15T22:33:45.256Z,100.00
2022-12-15T22:36:11.973Z,100.00
2022-12-15T22:38:38.563Z,100.00
2022-12-15T22:41:06.723Z,100.00
2022-12-15T22:43:37.950Z,100.00
2022-12-15T22:46:07.645Z,100.00
2022-12-15T22:48:37.007Z,100.00
2022-12-15T22:51:05.579Z,100.00
2022-12-15T22:53:34.859Z,100.00
2022-12-15T22:56:05.972Z,100.00
2022-12-15T22:58:36.646Z,100.00
2022-12-15T23:01:06.480Z,100.00
2022-12-15T23:03:33.664Z,100.00
2022-12-15T23:06:01.987Z,100.00
2022-12-15T23:08:29.906Z,100.00
2022-12-15T23:11:14.967Z,100.00
2022-12-15T23:13:41.502Z,100.00
2022-12-15T23:16:23.385Z,100.00
2022-12-15T23:18:55.169Z,100.00
2022-12-15T23:21:23.885Z,100.00
2022-12-15T23:23:50.511Z,100.00
2022-12-15T23:26:18.611Z,100.00
2022-12-15T23:28:45.474Z,100.00
2022-12-15T23:31:12.150Z,100.00
2022-12-15T23:33:38.872Z,100.00
2022-12-15T23:36:06.204Z,100.00
2022-12-15T23:38:32.708Z,100.00
2022-12-15T23:40:59.218Z,100.00
2022-12-15T23:43:27.774Z,100.00
2022-12-15T23:46:00.237Z,100.00
2022-12-15T23:48:35.862Z,100.00
2022-12-15T23:51:06.981Z,100.00
2022-12-15T23:53:34.491Z,100.00
2022-12-15T23:56:13.383Z,100.00
2022-12-15T23:58:41.666Z,100.00
